Time;durP1;ratioP1;P1;durP2;ratioP2;P2;SDS_P1;SDS_P2;PMS_P1;PMS_P2;Temp;Humidity;BMP_temperature;BMP_pressure;BME280_temperature;BME280_humidity;BME280_pressure;Samples;Min_cycle;Max_cycle;Signal;HPM_P1;HPM_P2
2022/01/10 00:02:14;;;;;;;19.60;7.78;;;;;;;5.10;61.08;101006.09;4946347;28;117080;-68
2022/01/10 00:04:41;;;;;;;14.70;7.18;;;;;;;5.07;60.75;101016.69;4946199;28;124879;-68
2022/01/10 00:07:09;;;;;;;20.05;8.32;;;;;;;5.06;60.65;101017.56;4947556;28;124314;-69
2022/01/10 00:09:36;;;;;;;21.00;7.88;;;;;;;5.03;60.57;101015.03;4945338;28;119089;-68
2022/01/10 00:12:03;;;;;;;21.08;7.95;;;;;;;5.03;61.01;101020.28;4946998;28;118385;-68
2022/01/10 00:14:35;;;;;;;16.92;7.35;;;;;;;5.02;61.03;101023.78;4947359;28;123949;-68
2022/01/10 00:17:03;;;;;;;17.55;7.53;;;;;;;5.01;61.11;101019.41;4946865;28;123893;-68
2022/01/10 00:19:30;;;;;;;17.98;7.82;;;;;;;5.00;61.17;101025.56;4947084;28;120046;-68
2022/01/10 00:21:58;;;;;;;16.83;7.57;;;;;;;5.00;61.16;101030.81;4947677;28;119706;-67
2022/01/10 00:24:25;;;;;;;14.57;7.90;;;;;;;4.99;61.14;101034.31;4930376;28;124293;-69
2022/01/10 00:26:52;;;;;;;17.55;7.80;;;;;;;4.98;61.19;101043.09;4948244;28;124142;-68
2022/01/10 00:29:19;;;;;;;17.83;8.38;;;;;;;4.98;61.13;101037.84;4946511;28;119992;-68
2022/01/10 00:31:46;;;;;;;15.07;7.90;;;;;;;4.98;61.21;101048.34;4947478;28;118558;-68
2022/01/10 00:34:13;;;;;;;14.75;7.57;;;;;;;4.99;61.20;101056.22;4945850;28;123420;-68
2022/01/10 00:36:40;;;;;;;21.98;8.43;;;;;;;5.01;61.09;101056.16;4948077;28;123772;-68
2022/01/10 00:39:07;;;;;;;15.70;8.07;;;;;;;5.02;61.00;101063.16;4947470;28;119616;-68
2022/01/10 00:41:34;;;;;;;18.50;8.68;;;;;;;5.01;61.13;101069.28;4947103;28;119340;-68
2022/01/10 00:44:04;;;;;;;18.88;8.25;;;;;;;5.01;61.35;101069.28;4946593;28;124668;-68
2022/01/10 00:46:31;;;;;;;20.30;8.10;;;;;;;5.00;61.30;101065.78;4947058;28;124054;-68
2022/01/10 00:48:58;;;;;;;17.75;8.25;;;;;;;5.00;61.26;101072.81;4947116;28;119329;-68
2022/01/10 00:51:25;;;;;;;20.52;8.98;;;;;;;5.00;61.09;101078.06;4945195;28;118111;-68
2022/01/10 00:53:52;;;;;;;22.67;8.80;;;;;;;4.99;61.11;101077.22;4946869;28;124411;-68
2022/01/10 00:56:20;;;;;;;22.98;8.43;;;;;;;4.98;61.02;101079.84;4946526;28;124078;-69
2022/01/10 00:58:47;;;;;;;19.83;8.95;;;;;;;4.97;61.21;101073.75;4945638;28;118997;-69
2022/01/10 01:01:15;;;;;;;17.85;8.75;;;;;;;4.97;61.09;101080.72;4929139;28;118070;-68
2022/01/10 01:03:43;;;;;;;17.15;8.57;;;;;;;4.96;61.28;101081.66;4945389;28;126251;-68
2022/01/10 01:06:12;;;;;;;18.50;8.57;;;;;;;4.96;61.24;101081.66;4944503;28;124260;-68
2022/01/10 01:08:41;;;;;;;19.02;8.35;;;;;;;4.95;61.28;101085.16;4946926;28;120497;-68
2022/01/10 01:16:30;;;;;;;21.80;8.77;;;;;;;4.92;61.25;101114.09;4944597;28;123081;-68
2022/01/10 01:19:12;;;;;;;17.95;8.05;;;;;;;4.88;61.13;101111.50;4926958;28;121786;-68
2022/01/10 01:24:25;;;;;;;;;;;;;;;4.84;61.02;101125.56;4944957;28;124120;-68
2022/01/10 01:26:53;;;;;;;17.40;8.90;;;;;;;4.82;60.91;101131.72;4946979;28;124426;-68
2022/01/10 01:29:24;;;;;;;23.45;9.57;;;;;;;4.79;60.99;101137.03;4946840;28;118154;-68
2022/01/10 01:31:52;;;;;;;23.30;9.45;;;;;;;4.76;61.32;101143.19;4942333;28;119325;-68
2022/01/10 01:34:21;;;;;;;17.58;9.27;;;;;;;4.76;61.04;101148.44;4942342;28;122632;-68
2022/01/10 01:36:53;;;;;;;22.48;9.30;;;;;;;4.74;61.28;101142.34;4928203;28;126122;-69
2022/01/10 01:39:24;;;;;;;18.30;8.82;;;;;;;4.73;61.22;101143.25;4944824;28;118990;-69
2022/01/10 01:42:05;;;;;;;21.52;9.63;;;;;;;4.74;61.38;101159.84;4944812;28;119118;-68
2022/01/10 01:44:34;;;;;;;20.73;9.57;;;;;;;4.74;61.43;101160.72;4944528;28;123456;-69
2022/01/10 01:47:03;;;;;;;18.73;9.68;;;;;;;4.73;61.21;101169.50;4930230;28;123684;-68
2022/01/10 01:49:30;;;;;;;19.83;8.95;;;;;;;4.72;61.53;101178.25;4944921;28;121007;-68
2022/01/10 01:51:57;;;;;;;19.10;8.70;;;;;;;4.72;61.11;101182.63;4945260;28;118807;-68
2022/01/10 01:54:24;;;;;;;17.00;9.23;;;;;;;4.69;61.23;101178.31;4933103;28;123375;-68
2022/01/10 01:56:52;;;;;;;22.55;8.73;;;;;;;4.69;61.14;101188.81;4945258;28;123870;-68
2022/01/10 01:59:19;;;;;;;23.08;9.63;;;;;;;4.67;61.18;101182.69;4942159;28;119705;-68
2022/01/10 02:01:47;;;;;;;20.20;8.88;;;;;;;4.65;61.11;101187.97;4936503;28;119179;-68
2022/01/10 02:04:14;;;;;;;19.73;9.27;;;;;;;4.65;61.15;101192.34;4941447;28;123518;-68
2022/01/10 02:06:44;;;;;;;23.70;9.50;;;;;;;4.64;61.05;101190.63;4944739;28;122423;-68
2022/01/10 02:09:14;;;;;;;23.80;10.00;;;;;;;4.60;61.05;101194.19;4939575;28;119033;-69
2022/01/10 02:11:44;;;;;;;21.10;9.20;;;;;;;4.58;61.11;101195.97;4947231;28;117160;-69
2022/01/10 02:14:15;;;;;;;22.48;9.52;;;;;;;4.56;61.31;101202.97;4930807;28;123837;-68
2022/01/10 02:16:45;;;;;;;18.17;9.10;;;;;;;4.55;61.19;101198.63;4932093;28;123713;-68
2022/01/10 02:19:32;;;;;;;20.77;9.02;;;;;;;4.53;60.96;101214.38;4948625;28;119331;-68
2022/01/10 02:21:59;;;;;;;22.98;9.02;;;;;;;4.49;61.08;101213.53;4949207;28;119142;-68
2022/01/10 02:24:33;;;;;;;22.55;9.82;;;;;;;4.47;61.16;101215.31;4946599;28;123555;-68
2022/01/10 02:27:02;;;;;;;20.50;9.77;;;;;;;4.45;61.33;101211.00;4947880;28;123141;-69
2022/01/10 02:29:36;;;;;;;21.80;10.13;;;;;;;4.44;61.38;101220.59;4947876;28;118872;-69
2022/01/10 02:32:04;;;;;;;23.90;9.90;;;;;;;4.44;61.30;101225.84;4947439;28;119437;-69
2022/01/10 02:34:31;;;;;;;23.38;10.85;;;;;;;4.43;61.46;101224.13;4947347;28;123457;-68
2022/01/10 02:37:00;;;;;;;21.33;10.23;;;;;;;4.43;61.19;101234.63;4942801;28;123064;-68
2022/01/10 02:39:31;;;;;;;20.13;8.63;;;;;;;4.43;61.42;101239.88;4947838;28;118765;-68
2022/01/10 02:41:58;;;;;;;25.55;9.80;;;;;;;4.43;61.76;101239.88;4943139;28;118254;-68
2022/01/10 02:44:28;;;;;;;27.90;10.95;;;;;;;4.43;61.45;101247.72;4947871;28;123063;-68
2022/01/10 02:46:56;;;;;;;23.42;9.27;;;;;;;4.42;61.36;101253.84;4947279;28;123167;-68
2022/01/10 02:49:31;;;;;;;19.75;9.32;;;;;;;4.43;61.52;101260.84;4946920;28;118465;-68
2022/01/10 02:51:59;;;;;;;22.30;9.48;;;;;;;4.43;61.36;101260.84;4926329;28;120546;-69
2022/01/10 02:54:28;;;;;;;18.58;9.18;;;;;;;4.43;61.40;101275.72;4947160;28;123763;-68
2022/01/10 02:56:57;;;;;;;22.00;9.70;;;;;;;4.41;61.04;101280.97;4947323;28;123213;-68
2022/01/10 02:59:26;;;;;;;21.48;10.00;;;;;;;4.41;61.25;101277.50;4947589;28;118248;-71
2022/01/10 03:01:54;;;;;;;23.20;9.43;;;;;;;4.38;61.34;101278.38;4930960;28;118657;-68
2022/01/10 03:04:23;;;;;;;22.38;10.15;;;;;;;4.37;61.40;101281.91;4930518;28;125931;-68
2022/01/10 03:06:51;;;;;;;25.17;9.45;;;;;;;4.33;61.03;101285.44;4947870;28;124586;-68
2022/01/10 03:09:18;;;;;;;18.67;9.55;;;;;;;4.31;60.89;101284.59;4929104;28;121253;-68
2022/01/10 03:11:45;;;;;;;21.35;9.88;;;;;;;4.27;61.37;101290.75;4947541;28;118506;-67
2022/01/10 03:14:13;;;;;;;16.58;9.63;;;;;;;4.24;61.13;101291.69;4946409;28;123875;-68
2022/01/10 03:16:41;;;;;;;22.60;10.13;;;;;;;4.22;61.17;101293.44;4947478;28;124156;-68
2022/01/10 03:19:08;;;;;;;23.35;10.38;;;;;;;4.22;61.56;101297.78;4947503;28;119842;-67
2022/01/10 03:21:35;;;;;;;20.15;9.13;;;;;;;4.24;61.35;101303.91;4946619;28;118666;-68
2022/01/10 03:24:03;;;;;;;19.60;9.38;;;;;;;4.22;61.31;101308.28;4948434;28;124222;-68
2022/01/10 03:26:32;;;;;;;23.02;9.48;;;;;;;4.22;61.32;101318.78;4946760;28;123654;-68
2022/01/10 03:29:01;;;;;;;24.50;9.68;;;;;;;4.22;61.19;101313.53;4928897;28;119238;-68
2022/01/10 03:31:29;;;;;;;20.65;9.15;;;;;;;4.21;61.32;101323.16;4946443;28;118213;-68
2022/01/10 03:33:57;;;;;;;23.85;9.75;;;;;;;4.21;61.23;101322.28;4946555;28;123363;-68
2022/01/10 03:36:26;;;;;;;25.05;9.85;;;;;;;4.19;61.78;101329.31;4947365;28;122746;-68
2022/01/10 03:38:53;;;;;;;26.38;9.70;;;;;;;4.17;61.23;101333.72;4947753;28;120353;-68
2022/01/10 03:41:20;;;;;;;21.98;9.55;;;;;;;4.18;61.31;101336.31;4945701;28;119252;-67
2022/01/10 03:43:48;;;;;;;21.08;10.52;;;;;;;4.18;61.66;101338.03;4945124;28;124134;-68
2022/01/10 03:46:15;;;;;;;23.13;10.00;;;;;;;4.17;61.67;101346.81;4946268;28;123799;-68
2022/01/10 03:48:43;;;;;;;22.15;9.80;;;;;;;4.19;61.55;101355.53;4946452;28;118490;-68
2022/01/10 03:51:11;;;;;;;20.45;9.95;;;;;;;4.22;61.70;101355.47;4946368;28;118211;-69
2022/01/10 03:53:38;;;;;;;26.58;9.90;;;;;;;4.24;61.69;101369.47;4914136;28;124109;-69
2022/01/10 03:56:05;;;;;;;21.05;10.02;;;;;;;4.24;61.64;101364.22;4946418;28;123376;-68
2022/01/10 03:58:34;;;;;;;22.13;9.75;;;;;;;4.26;61.53;101378.19;4946531;28;118830;-68
2022/01/10 04:01:03;;;;;;;26.20;9.93;;;;;;;4.26;61.64;101386.03;4945870;28;118256;-69
2022/01/10 04:03:33;;;;;;;20.85;9.98;;;;;;;4.26;61.71;101388.66;4945134;28;123118;-68
2022/01/10 04:06:08;;;;;;;25.07;9.83;;;;;;;4.27;61.62;101393.00;4944721;28;123358;-68
2022/01/10 04:08:35;;;;;;;27.30;10.30;;;;;;;4.28;61.63;101397.38;4947604;28;119725;-68
2022/01/10 04:11:04;;;;;;;23.77;10.07;;;;;;;4.30;61.78;101398.22;4948106;28;119690;-68
2022/01/10 04:13:33;;;;;;;27.95;9.82;;;;;;;4.31;61.58;101402.56;4945227;28;122324;-68
2022/01/10 04:16:00;;;;;;;20.92;10.35;;;;;;;4.31;61.65;101397.34;4930191;28;123096;-69
2022/01/10 04:18:28;;;;;;;25.08;10.57;;;;;;;4.34;61.90;101402.56;4947762;28;119587;-68
2022/01/10 04:20:55;;;;;;;20.48;9.30;;;;;;;4.36;61.65;101408.66;4946318;28;118296;-68
2022/01/10 04:23:22;;;;;;;22.58;10.00;;;;;;;4.38;61.73;101409.50;4945735;28;122918;-69
2022/01/10 04:25:49;;;;;;;20.70;9.73;;;;;;;4.40;61.81;101406.88;4945926;28;123179;-68
2022/01/10 04:28:18;;;;;;;29.15;10.88;;;;;;;4.40;61.62;101418.22;4942444;28;119997;-69
2022/01/10 04:30:45;;;;;;;22.33;9.48;;;;;;;4.39;61.41;101432.25;4945314;28;120016;-68
2022/01/10 04:33:17;;;;;;;24.60;9.73;;;;;;;4.39;61.67;101432.25;4945962;28;123284;-69
2022/01/10 04:35:47;;;;;;;18.63;9.55;;;;;;;4.38;61.45;101434.88;4941923;28;123153;-68
2022/01/10 04:38:15;;;;;;;26.70;10.40;;;;;;;4.36;61.37;101447.13;4929598;28;119119;-68
2022/01/10 04:40:42;;;;;;;21.25;9.90;;;;;;;4.32;61.48;101451.53;4945668;28;117894;-69
2022/01/10 04:43:10;;;;;;;21.55;9.57;;;;;;;4.29;61.32;101451.53;4929193;28;124060;-69
2022/01/10 04:45:38;;;;;;;22.10;9.80;;;;;;;4.25;61.52;101455.09;4946499;28;123053;-68
2022/01/10 04:48:05;;;;;;;24.33;10.65;;;;;;;4.24;61.47;101469.97;4946165;28;118999;-69
2022/01/10 04:53:00;;;;;;;19.88;9.77;;;;;;;4.26;61.72;101475.19;4944662;28;122698;-68
2022/01/10 04:55:27;;;;;;;20.85;9.38;;;;;;;4.27;61.63;101484.78;4945445;28;123718;-69
2022/01/10 04:57:54;;;;;;;20.35;9.15;;;;;;;4.26;61.53;101483.06;4945876;28;118585;-68
2022/01/10 05:00:22;;;;;;;21.83;9.55;;;;;;;4.24;61.47;101490.06;4945221;28;118390;-68
2022/01/10 05:02:51;;;;;;;23.48;9.57;;;;;;;4.23;61.64;101504.03;4943228;28;123519;-68
2022/01/10 05:05:20;;;;;;;26.63;9.85;;;;;;;4.23;61.52;101509.28;4945460;28;122857;-68
2022/01/10 05:07:47;;;;;;;25.85;10.20;;;;;;;4.21;61.63;101511.06;4945947;28;118723;-69
2022/01/10 05:10:16;;;;;;;26.52;10.00;;;;;;;4.21;61.62;101521.53;4945434;28;118759;-68
2022/01/10 05:12:44;;;;;;;19.80;9.45;;;;;;;4.21;61.72;101527.66;4942291;28;124045;-69
2022/01/10 05:15:12;;;;;;;20.77;9.57;;;;;;;4.22;61.52;101531.13;4928649;28;123813;-68
2022/01/10 05:17:39;;;;;;;19.08;9.63;;;;;;;4.24;61.64;101532.03;4941872;28;119918;-68
2022/01/10 05:20:08;;;;;;;18.08;9.27;;;;;;;4.25;62.03;101545.09;4929167;28;119268;-68
2022/01/10 05:22:40;;;;;;;21.38;9.20;;;;;;;4.27;61.52;101542.47;4945339;28;124049;-68
2022/01/10 05:25:07;;;;;;;20.23;8.75;;;;;;;4.29;61.55;101545.94;4945219;28;124836;-68
2022/01/10 05:27:36;;;;;;;22.77;10.10;;;;;;;4.31;61.68;101554.66;4937108;28;118291;-68
2022/01/10 05:30:07;;;;;;;21.48;10.30;;;;;;;4.32;61.93;101551.19;4944303;28;118133;-69
2022/01/10 05:32:34;;;;;;;19.05;9.30;;;;;;;4.35;61.79;101561.66;4945389;28;123214;-68
2022/01/10 05:35:13;;;;;;;25.90;10.35;;;;;;;4.37;61.75;101557.25;4945328;28;123664;-68
2022/01/10 05:37:40;;;;;;;21.75;9.98;;;;;;;4.38;61.70;101571.22;4946770;28;119363;-69
2022/01/10 05:40:08;;;;;;;22.67;9.30;;;;;;;4.38;61.76;101572.09;4942525;28;117904;-69
2022/01/10 05:42:35;;;;;;;21.38;8.63;;;;;;;4.41;61.81;101579.94;4942960;28;124324;-68
2022/01/10 05:45:03;;;;;;;18.17;9.05;;;;;;;4.44;61.65;101582.53;4944784;28;123342;-68
2022/01/10 05:47:35;;;;;;;23.75;9.77;;;;;;;4.46;61.57;101593.00;4913312;28;118611;-69
2022/01/10 05:50:03;;;;;;;23.92;9.98;;;;;;;4.46;61.63;101596.53;4944647;28;118539;-69
2022/01/10 05:52:38;;;;;;;21.67;9.68;;;;;;;4.49;61.85;101601.72;4943793;28;123905;-68
2022/01/10 05:55:05;;;;;;;24.90;9.98;;;;;;;4.54;61.90;101608.69;4935772;28;122971;-68
2022/01/10 05:57:35;;;;;;;20.17;9.85;;;;;;;4.56;61.96;101607.81;4944662;28;118928;-68
2022/01/10 06:00:04;;;;;;;25.08;9.93;;;;;;;4.59;61.95;101601.66;4928796;28;118462;-69
2022/01/10 06:02:40;;;;;;;23.23;11.20;;;;;;;4.61;61.66;101611.25;4946272;28;124752;-69
2022/01/10 06:05:12;;;;;;;20.40;9.90;;;;;;;4.63;61.96;101621.75;4944349;28;124135;-69
2022/01/10 06:07:45;;;;;;;22.13;9.90;;;;;;;4.64;61.89;101616.50;4935988;28;119309;-69
2022/01/10 06:10:12;;;;;;;22.65;10.48;;;;;;;4.68;61.91;101622.59;4944335;28;119662;-69
2022/01/10 06:12:40;;;;;;;25.52;11.30;;;;;;;4.70;61.73;101615.56;4944261;28;123645;-69
2022/01/10 06:15:08;;;;;;;26.40;10.35;;;;;;;4.73;62.09;101615.56;4944435;28;123200;-68
2022/01/10 06:17:40;;;;;;;23.88;10.10;;;;;;;4.75;62.01;101629.53;4944413;28;119075;-69
2022/01/10 06:20:08;;;;;;;22.52;10.07;;;;;;;4.78;62.08;101624.22;4943820;28;118399;-69
2022/01/10 06:22:35;;;;;;;23.67;10.07;;;;;;;4.81;61.96;101629.47;4944224;28;123090;-69
2022/01/10 06:25:05;;;;;;;26.70;10.20;;;;;;;4.84;61.74;101634.69;4943831;28;122882;-69
2022/01/10 06:27:32;;;;;;;21.38;10.52;;;;;;;4.85;62.01;101636.44;4945293;28;119006;-69
2022/01/10 06:29:59;;;;;;;21.45;9.63;;;;;;;4.85;61.95;101652.19;4944596;28;118956;-70
2022/01/10 06:32:29;;;;;;;21.85;10.13;;;;;;;4.90;61.96;101653.88;4943591;28;124207;-69
2022/01/10 06:34:57;;;;;;;23.77;9.77;;;;;;;4.91;61.73;101660.88;4944651;28;122965;-69
2022/01/10 06:37:25;;;;;;;21.23;9.65;;;;;;;4.92;61.75;101667.91;4947129;28;118671;-69
2022/01/10 06:39:52;;;;;;;20.25;9.75;;;;;;;4.93;61.84;101661.75;4945279;28;119341;-69
2022/01/10 06:42:20;;;;;;;24.38;9.63;;;;;;;4.92;62.18;101667.91;4944871;28;123138;-69
2022/01/10 06:44:48;;;;;;;26.25;10.85;;;;;;;4.93;61.84;101669.63;4944240;28;122906;-69
2022/01/10 06:47:15;;;;;;;22.55;10.20;;;;;;;4.94;61.88;101676.63;4944293;28;118390;-69
2022/01/10 06:49:42;;;;;;;19.40;9.35;;;;;;;4.96;61.72;101680.09;4944248;28;117991;-68
2022/01/10 06:52:11;;;;;;;22.48;10.10;;;;;;;4.97;61.94;101694.94;4927500;28;123678;-69
2022/01/10 06:54:40;;;;;;;21.80;9.40;;;;;;;4.99;61.64;101695.81;4930532;28;123032;-69
2022/01/10 06:57:08;;;;;;;22.45;10.30;;;;;;;4.99;61.93;101703.69;4948629;28;120747;-69
2022/01/10 06:59:36;;;;;;;22.60;10.35;;;;;;;5.00;62.02;101713.31;4946792;28;119230;-69
2022/01/10 07:02:04;;;;;;;21.60;9.90;;;;;;;4.99;61.56;101722.06;4930798;28;122942;-69
2022/01/10 07:04:32;;;;;;;21.27;9.93;;;;;;;4.96;61.79;101727.34;4931029;28;122807;-69
2022/01/10 07:07:02;;;;;;;19.15;9.40;;;;;;;4.94;61.88;101734.38;4947362;28;118299;-69
2022/01/10 07:09:32;;;;;;;24.17;9.93;;;;;;;4.93;61.77;101732.63;4947805;28;118773;-69
2022/01/10 07:12:07;;;;;;;24.67;9.98;;;;;;;4.92;61.79;101741.41;4928979;28;122179;-69
2022/01/10 07:14:43;;;;;;;21.20;10.18;;;;;;;4.91;61.71;101748.38;4947736;28;122823;-68
2022/01/10 07:17:12;;;;;;;19.65;9.75;;;;;;;4.89;61.72;101752.75;4948012;28;118423;-69
2022/01/10 07:19:39;;;;;;;22.90;9.63;;;;;;;4.86;61.73;101764.16;4947298;28;117182;-69
2022/01/10 07:22:12;;;;;;;20.95;10.20;;;;;;;4.85;61.43;101767.66;4945564;28;125197;-69
2022/01/10 07:24:39;;;;;;;25.23;10.00;;;;;;;4.85;61.86;101775.53;4946270;28;123534;-69
2022/01/10 07:27:06;;;;;;;22.73;9.65;;;;;;;4.82;61.68;101788.69;4945751;28;119557;-69
2022/01/10 07:29:33;;;;;;;25.23;10.57;;;;;;;4.83;61.94;101790.41;4948071;28;119023;-69
2022/01/10 07:32:01;;;;;;;27.23;10.27;;;;;;;4.84;61.79;101792.19;4947156;28;124120;-69
2022/01/10 07:34:28;;;;;;;20.58;9.73;;;;;;;4.84;61.68;101797.44;4943852;28;123997;-69
2022/01/10 07:36:55;;;;;;;19.90;10.07;;;;;;;4.85;61.88;101798.28;4947327;28;119249;-69
2022/01/10 07:39:22;;;;;;;20.90;9.90;;;;;;;4.87;61.88;101807.88;4946067;28;118084;-69
2022/01/10 07:41:49;;;;;;;20.10;10.10;;;;;;;4.90;61.90;101814.00;4945754;28;124073;-69
2022/01/10 07:44:28;;;;;;;20.55;9.88;;;;;;;4.90;62.05;101819.25;4946300;28;123850;-69
2022/01/10 07:46:56;;;;;;;18.63;9.73;;;;;;;4.91;62.09;101823.63;4946649;28;120269;-69
2022/01/10 07:49:23;;;;;;;22.48;10.35;;;;;;;4.93;61.83;101827.13;4948036;28;120006;-69
2022/01/10 07:51:51;;;;;;;24.33;9.90;;;;;;;4.95;62.10;101825.34;4946009;28;124037;-69
2022/01/10 07:54:18;;;;;;;23.90;10.55;;;;;;;4.95;61.80;101831.47;4947896;28;123645;-69
2022/01/10 07:56:45;;;;;;;19.73;9.90;;;;;;;4.97;61.82;101839.34;4947554;28;120598;-69
2022/01/10 07:59:12;;;;;;;23.73;10.05;;;;;;;4.97;61.98;101839.34;4947055;28;117159;-69
2022/01/10 08:01:39;;;;;;;28.90;10.57;;;;;;;5.00;62.00;101849.84;4946376;28;123006;-69
2022/01/10 08:04:07;;;;;;;22.50;10.30;;;;;;;5.02;61.92;101853.31;4941274;28;122571;-69
2022/01/10 08:06:34;;;;;;;22.25;10.85;;;;;;;5.04;61.90;101862.06;4945553;28;118504;-69
2022/01/10 08:09:01;;;;;;;23.42;11.15;;;;;;;5.06;62.00;101857.66;4930388;28;118260;-69
2022/01/10 08:11:28;;;;;;;21.80;10.00;;;;;;;5.08;61.95;101869.03;4945595;28;124063;-69
2022/01/10 08:13:55;;;;;;;21.35;10.30;;;;;;;5.10;62.14;101867.25;4946905;28;123739;-69
2022/01/10 08:16:22;;;;;;;24.27;10.57;;;;;;;5.11;61.82;101879.53;4947502;28;120054;-69
2022/01/10 08:18:50;;;;;;;21.33;10.63;;;;;;;5.11;61.74;101879.53;4947244;28;118950;-69
2022/01/10 08:21:17;;;;;;;23.25;10.80;;;;;;;5.12;61.63;101891.75;4945911;28;123290;-70
2022/01/10 08:23:44;;;;;;;21.27;9.75;;;;;;;5.11;61.76;101894.41;4944256;28;122660;-70
2022/01/10 08:26:11;;;;;;;20.55;9.52;;;;;;;5.12;61.87;101901.41;4941923;28;120207;-70
2022/01/10 08:28:39;;;;;;;21.65;11.10;;;;;;;5.12;62.15;101904.88;4949049;28;119704;-70
2022/01/10 08:31:09;;;;;;;25.08;10.15;;;;;;;5.15;61.93;101911.91;4948162;28;123217;-70
2022/01/10 08:33:38;;;;;;;20.08;9.68;;;;;;;5.17;61.96;101916.25;4947272;28;123619;-70
2022/01/10 08:36:05;;;;;;;23.13;9.80;;;;;;;5.18;61.86;101920.63;4946945;28;120378;-71
2022/01/10 08:38:32;;;;;;;22.35;9.60;;;;;;;5.17;61.85;101921.50;4947127;28;120235;-71
2022/01/10 08:40:59;;;;;;;25.02;10.65;;;;;;;5.19;61.85;101932.88;4945007;28;124106;-70
2022/01/10 08:43:26;;;;;;;21.90;10.10;;;;;;;5.19;61.93;101940.75;4945391;28;123650;-71
2022/01/10 08:45:54;;;;;;;23.98;9.75;;;;;;;5.20;61.95;101952.16;4947334;28;118564;-71
2022/01/10 08:48:21;;;;;;;22.42;10.02;;;;;;;5.19;61.95;101959.13;4937998;28;117754;-71
2022/01/10 08:50:48;;;;;;;20.05;9.75;;;;;;;5.17;61.93;101963.50;4946394;28;123519;-71
2022/01/10 08:53:15;;;;;;;18.90;9.15;;;;;;;5.16;61.84;101961.78;4948516;28;123076;-71
2022/01/10 08:55:42;;;;;;;16.52;9.18;;;;;;;5.14;62.00;101974.06;4951275;28;119379;-71
2022/01/10 08:58:10;;;;;;;20.42;9.88;;;;;;;5.12;62.01;101974.91;4948007;28;118262;-70
2022/01/10 09:00:37;;;;;;;17.90;9.52;;;;;;;5.12;62.00;101986.28;4926722;28;124820;-71
2022/01/10 09:03:04;;;;;;;16.92;8.60;;;;;;;5.13;62.07;101981.94;4944758;28;123933;-71
2022/01/10 09:05:32;;;;;;;18.38;8.85;;;;;;;5.14;61.89;101995.06;4947570;28;119378;-70
2022/01/10 09:08:02;;;;;;;17.33;9.00;;;;;;;5.15;61.98;101995.94;4947419;28;118819;-70
2022/01/10 09:10:29;;;;;;;19.23;8.65;;;;;;;5.12;61.90;102002.03;4946388;28;122619;-70
2022/01/10 09:12:59;;;;;;;16.83;9.07;;;;;;;5.13;61.78;102003.81;4946295;28;125292;-70
2022/01/10 09:15:27;;;;;;;17.83;8.93;;;;;;;5.13;61.82;102009.06;4947835;28;118812;-70
2022/01/10 09:17:54;;;;;;;15.48;8.27;;;;;;;5.14;61.79;102016.06;4929775;28;118128;-70
2022/01/10 09:20:21;;;;;;;17.40;8.57;;;;;;;5.16;61.87;102019.56;4946003;28;123297;-70
2022/01/10 09:22:49;;;;;;;16.13;8.57;;;;;;;5.17;61.79;102021.28;4947384;28;125505;-70
2022/01/10 09:25:17;;;;;;;19.75;8.32;;;;;;;5.18;62.07;102023.06;4947189;28;120723;-71
2022/01/10 09:27:44;;;;;;;17.80;8.68;;;;;;;5.18;61.65;102023.06;4944823;28;119614;-70
2022/01/10 09:30:12;;;;;;;15.52;8.45;;;;;;;5.17;61.86;102023.91;4943613;28;123895;-70
2022/01/10 09:32:40;;;;;;;14.98;8.32;;;;;;;5.17;61.65;102029.16;4944540;28;122979;-71
2022/01/10 09:35:07;;;;;;;14.85;8.48;;;;;;;5.17;61.88;102034.41;4947008;28;119121;-71
2022/01/10 09:37:35;;;;;;;16.90;9.13;;;;;;;5.19;61.93;102032.66;4947312;28;118907;-71
2022/01/10 09:40:06;;;;;;;16.85;8.85;;;;;;;5.21;62.08;102033.53;4946026;28;123760;-71
2022/01/10 09:42:34;;;;;;;17.08;9.30;;;;;;;5.21;61.94;102030.91;4944289;28;123625;-71
2022/01/10 09:45:04;;;;;;;15.57;8.45;;;;;;;5.23;61.91;102041.41;4944820;28;119529;-71
2022/01/10 09:47:31;;;;;;;16.73;8.73;;;;;;;5.25;62.03;102045.78;4953400;28;119543;-71
2022/01/10 09:50:07;;;;;;;18.42;9.43;;;;;;;5.28;62.12;102044.03;4949836;28;123431;-71
2022/01/10 09:52:37;;;;;;;17.20;8.82;;;;;;;5.31;62.00;102054.50;4947765;28;124653;-71
2022/01/10 09:55:05;;;;;;;17.98;8.73;;;;;;;5.33;61.94;102058.00;4945125;28;119652;-71
2022/01/10 09:57:32;;;;;;;17.08;9.55;;;;;;;5.37;61.99;102054.47;4947168;28;118350;-71
2022/01/10 09:59:59;;;;;;;18.13;9.10;;;;;;;5.38;62.18;102066.75;4938958;28;123681;-68
2022/01/10 10:02:34;;;;;;;17.02;9.23;;;;;;;5.41;62.21;102066.75;4928944;28;123813;-68
2022/01/10 10:05:08;;;;;;;20.15;9.15;;;;;;;5.45;61.97;102074.59;4943795;28;118152;-68
2022/01/10 10:07:37;;;;;;;17.42;8.80;;;;;;;5.49;61.88;102080.72;4946792;28;119246;-68
2022/01/10 10:10:18;;;;;;;17.23;8.52;;;;;;;5.53;61.97;102087.69;4929766;28;123354;-71
2022/01/10 10:12:47;;;;;;;15.57;8.50;;;;;;;5.55;62.08;102085.94;4940599;28;123306;-70
2022/01/10 10:15:18;;;;;;;17.60;8.95;;;;;;;5.55;61.98;102085.06;4909575;28;119125;-70
2022/01/10 10:17:45;;;;;;;18.17;9.57;;;;;;;5.56;61.79;102098.22;4942687;28;119061;-70
2022/01/10 10:20:16;;;;;;;17.98;9.30;;;;;;;5.57;62.02;102094.69;4932724;28;123240;-70
2022/01/10 10:23:05;;;;;;;17.77;8.45;;;;;;;5.58;61.59;102106.97;4931492;28;122930;-70
2022/01/10 10:25:33;;;;;;;18.23;9.10;;;;;;;5.56;61.63;102113.97;4938493;28;120060;-70
2022/01/10 10:28:01;;;;;;;16.92;9.10;;;;;;;5.55;61.96;102112.22;4944670;28;119346;-70
2022/01/10 10:30:31;;;;;;;19.05;9.60;;;;;;;5.56;61.78;102113.97;4932603;28;124466;-70
2022/01/10 10:33:19;;;;;;;19.98;9.50;;;;;;;5.60;62.12;102118.34;4949922;28;124104;-70
2022/01/10 10:35:58;;;;;;;16.45;8.93;;;;;;;5.63;61.97;102126.22;4936876;28;119791;-70
2022/01/10 10:38:26;;;;;;;18.98;8.93;;;;;;;5.66;61.83;102128.81;4929503;28;118848;-70
2022/01/10 10:40:54;;;;;;;17.75;8.88;;;;;;;5.69;61.97;102134.94;4949193;28;123929;-69
2022/01/10 10:43:23;;;;;;;17.77;8.90;;;;;;;5.70;62.01;102136.69;4949204;28;123920;-70
2022/01/10 10:45:50;;;;;;;18.15;9.50;;;;;;;5.74;62.09;102138.44;4947882;28;118164;-70
2022/01/10 10:48:17;;;;;;;17.17;8.73;;;;;;;5.77;61.98;102143.69;4947174;28;117502;-70
2022/01/10 10:50:47;;;;;;;20.10;9.48;;;;;;;5.82;61.83;102152.41;4949620;28;124563;-69
2022/01/10 10:53:15;;;;;;;21.45;9.63;;;;;;;5.85;61.65;102152.41;4950037;28;124489;-69
2022/01/10 10:55:44;;;;;;;22.58;10.20;;;;;;;5.86;61.49;102146.28;4949796;28;119435;-70
2022/01/10 10:58:13;;;;;;;20.92;9.27;;;;;;;5.84;61.66;102150.66;4950568;28;118937;-70
2022/01/10 11:00:40;;;;;;;19.73;9.80;;;;;;;5.82;61.64;102149.78;4932388;28;123082;-70
2022/01/10 11:03:12;;;;;;;17.75;9.35;;;;;;;5.81;61.61;102155.94;4950347;28;123845;-70
2022/01/10 11:05:43;;;;;;;19.27;8.90;;;;;;;5.78;61.45;102161.19;4948834;28;120204;-70
2022/01/10 11:08:11;;;;;;;19.52;9.07;;;;;;;5.78;61.45;102166.44;4931775;28;119152;-69
2022/01/10 11:10:39;;;;;;;17.08;8.73;;;;;;;5.76;61.61;102169.06;4931871;28;124998;-70
2022/01/10 11:13:07;;;;;;;18.05;8.50;;;;;;;5.76;61.39;102162.94;4948577;28;122667;-70
2022/01/10 11:15:38;;;;;;;17.50;7.93;;;;;;;5.76;61.49;102173.47;4931790;28;118263;-69
2022/01/10 11:18:10;;;;;;;16.13;7.82;;;;;;;5.77;61.71;102172.59;4947136;28;119224;-70
2022/01/10 11:20:45;;;;;;;18.80;7.78;;;;;;;5.77;61.58;102169.97;4931059;28;123407;-69
2022/01/10 11:23:31;;;;;;;16.13;7.72;;;;;;;5.76;61.48;102173.47;4946931;28;124114;-69
2022/01/10 11:25:58;;;;;;;20.00;7.20;;;;;;;5.73;61.47;102168.25;4948582;28;119765;-70
2022/01/10 11:28:28;;;;;;;19.42;7.30;;;;;;;5.65;61.33;102171.75;4922823;28;117594;-70
2022/01/10 11:31:07;;;;;;;26.20;7.90;;;;;;;5.57;61.46;102184.03;4939864;28;123378;-70
2022/01/10 11:33:36;;;;;;;14.85;7.13;;;;;;;5.54;61.39;102184.06;4928206;28;123437;-70